sensor_id;sensor_type;location;lat;lon;timestamp;pressure;altitude;pressure_sealevel;temperature;humidity
69855;BME280;57146;48.140;16.304;2023-09-19T00:02:21;98800.59;;;18.33;79.97
69855;BME280;57146;48.140;16.304;2023-09-19T00:04:48;98812.34;;;18.29;80.80
69855;BME280;57146;48.140;16.304;2023-09-19T00:07:15;98805.69;;;18.15;81.46
69855;BME280;57146;48.140;16.304;2023-09-19T00:09:42;98815.81;;;18.06;82.22
69855;BME280;57146;48.140;16.304;2023-09-19T00:12:09;98823.00;;;18.02;83.92
69855;BME280;57146;48.140;16.304;2023-09-19T00:14:37;98825.13;;;17.89;85.73
69855;BME280;57146;48.140;16.304;2023-09-19T00:17:04;98822.03;;;17.87;86.98
69855;BME280;57146;48.140;16.304;2023-09-19T00:19:31;98828.78;;;17.81;85.88
69855;BME280;57146;48.140;16.304;2023-09-19T00:21:59;98834.88;;;17.82;86.91
69855;BME280;57146;48.140;16.304;2023-09-19T00:24:26;98827.91;;;17.74;84.29
69855;BME280;57146;48.140;16.304;2023-09-19T00:26:53;98832.03;;;17.71;84.68
69855;BME280;57146;48.140;16.304;2023-09-19T00:29:20;98833.09;;;17.66;84.95
69855;BME280;57146;48.140;16.304;2023-09-19T00:31:47;98841.47;;;17.65;85.02
69855;BME280;57146;48.140;16.304;2023-09-19T00:34:14;98836.91;;;17.65;86.86
69855;BME280;57146;48.140;16.304;2023-09-19T00:36:41;98851.69;;;17.63;85.77
69855;BME280;57146;48.140;16.304;2023-09-19T00:39:08;98845.50;;;17.55;85.00
69855;BME280;57146;48.140;16.304;2023-09-19T00:41:35;98847.72;;;17.53;85.25
69855;BME280;57146;48.140;16.304;2023-09-19T00:44:03;98855.66;;;17.50;85.77
69855;BME280;57146;48.140;16.304;2023-09-19T00:46:31;98856.84;;;17.52;87.32
69855;BME280;57146;48.140;16.304;2023-09-19T00:48:58;98859.44;;;17.48;85.26
69855;BME280;57146;48.140;16.304;2023-09-19T00:51:26;98865.13;;;17.47;84.29
69855;BME280;57146;48.140;16.304;2023-09-19T00:53:54;98870.44;;;17.47;85.51
69855;BME280;57146;48.140;16.304;2023-09-19T00:56:21;98873.88;;;17.47;83.52
69855;BME280;57146;48.140;16.304;2023-09-19T00:58:52;98874.22;;;17.46;83.07
69855;BME280;57146;48.140;16.304;2023-09-19T01:01:19;98877.63;;;17.46;84.54
69855;BME280;57146;48.140;16.304;2023-09-19T01:03:47;98882.19;;;17.46;84.58
69855;BME280;57146;48.140;16.304;2023-09-19T01:06:14;98881.81;;;17.44;84.21
69855;BME280;57146;48.140;16.304;2023-09-19T01:08:41;98880.19;;;17.39;84.37
69855;BME280;57146;48.140;16.304;2023-09-19T01:22:03;98870.47;;;17.28;85.67
69855;BME280;57146;48.140;16.304;2023-09-19T01:27:53;98868.34;;;17.14;85.82
69855;BME280;57146;48.140;16.304;2023-09-19T01:30:32;98858.41;;;17.11;86.85
69855;BME280;57146;48.140;16.304;2023-09-19T01:33:05;98851.78;;;17.01;87.50
69855;BME280;57146;48.140;16.304;2023-09-19T01:35:33;98857.53;;;16.84;88.08
69855;BME280;57146;48.140;16.304;2023-09-19T01:38:00;98860.28;;;16.71;89.20
69855;BME280;57146;48.140;16.304;2023-09-19T01:40:27;98865.13;;;16.66;89.84
69855;BME280;57146;48.140;16.304;2023-09-19T01:42:59;98858.84;;;16.55;90.60
69855;BME280;57146;48.140;16.304;2023-09-19T01:51:10;98879.09;;;16.43;92.12
69855;BME280;57146;48.140;16.304;2023-09-19T01:54:09;98876.78;;;16.42;93.57
69855;BME280;57146;48.140;16.304;2023-09-19T01:56:42;98876.03;;;16.41;94.61
69855;BME280;57146;48.140;16.304;2023-09-19T01:59:14;98853.25;;;16.40;94.75
69855;BME280;57146;48.140;16.304;2023-09-19T02:01:45;98856.72;;;16.44;95.70
69855;BME280;57146;48.140;16.304;2023-09-19T02:04:15;98857.84;;;16.43;94.09
69855;BME280;57146;48.140;16.304;2023-09-19T02:06:42;98847.19;;;16.43;94.65
69855;BME280;57146;48.140;16.304;2023-09-19T02:09:09;98853.31;;;16.44;95.40
69855;BME280;57146;48.140;16.304;2023-09-19T02:11:36;98849.84;;;16.43;95.48
69855;BME280;57146;48.140;16.304;2023-09-19T02:14:03;98840.38;;;16.42;95.07
69855;BME280;57146;48.140;16.304;2023-09-19T02:16:31;98852.88;;;16.42;94.85
69855;BME280;57146;48.140;16.304;2023-09-19T02:18:58;98853.72;;;16.46;95.59
69855;BME280;57146;48.140;16.304;2023-09-19T02:21:25;98859.66;;;16.39;96.19
69855;BME280;57146;48.140;16.304;2023-09-19T02:23:52;98848.69;;;16.41;95.67
69855;BME280;57146;48.140;16.304;2023-09-19T02:26:19;98848.31;;;16.42;95.67
69855;BME280;57146;48.140;16.304;2023-09-19T02:28:47;98855.19;;;16.43;95.90
69855;BME280;57146;48.140;16.304;2023-09-19T02:31:14;98851.81;;;16.46;95.91
69855;BME280;57146;48.140;16.304;2023-09-19T02:33:42;98861.75;;;16.49;96.94
69855;BME280;57146;48.140;16.304;2023-09-19T02:36:09;98854.47;;;16.46;96.38
69855;BME280;57146;48.140;16.304;2023-09-19T02:38:36;98858.78;;;16.51;94.96
69855;BME280;57146;48.140;16.304;2023-09-19T02:41:03;98861.06;;;16.52;97.06
69855;BME280;57146;48.140;16.304;2023-09-19T02:43:31;98866.38;;;16.52;95.91
69855;BME280;57146;48.140;16.304;2023-09-19T02:45:58;98865.69;;;16.56;96.46
69855;BME280;57146;48.140;16.304;2023-09-19T02:48:26;98871.91;;;16.63;95.66
69855;BME280;57146;48.140;16.304;2023-09-19T02:50:53;98880.25;;;16.62;96.93
69855;BME280;57146;48.140;16.304;2023-09-19T02:53:20;98877.22;;;16.63;95.82
69855;BME280;57146;48.140;16.304;2023-09-19T02:55:47;98884.84;;;16.65;92.54
69855;BME280;57146;48.140;16.304;2023-09-19T02:58:14;98885.28;;;16.67;93.58
69855;BME280;57146;48.140;16.304;2023-09-19T03:00:42;98882.25;;;16.68;93.71
69855;BME280;57146;48.140;16.304;2023-09-19T03:03:09;98884.91;;;16.68;95.31
69855;BME280;57146;48.140;16.304;2023-09-19T03:05:36;98886.41;;;16.66;93.48
69855;BME280;57146;48.140;16.304;2023-09-19T03:08:03;98885.88;;;16.60;96.56
69855;BME280;57146;48.140;16.304;2023-09-19T03:10:31;98893.53;;;16.62;98.08
69855;BME280;57146;48.140;16.304;2023-09-19T03:12:58;98890.88;;;16.62;98.40
69855;BME280;57146;48.140;16.304;2023-09-19T03:15:26;98889.75;;;16.63;95.43
69855;BME280;57146;48.140;16.304;2023-09-19T03:17:53;98894.69;;;16.64;97.26
69855;BME280;57146;48.140;16.304;2023-09-19T03:20:23;98893.78;;;16.57;99.27
69855;BME280;57146;48.140;16.304;2023-09-19T03:22:50;98898.41;;;16.60;98.38
69855;BME280;57146;48.140;16.304;2023-09-19T03:25:20;98904.16;;;16.62;99.41
69855;BME280;57146;48.140;16.304;2023-09-19T03:27:50;98901.44;;;16.58;99.37
69855;BME280;57146;48.140;16.304;2023-09-19T03:30:22;98901.34;;;16.55;100.00
69855;BME280;57146;48.140;16.304;2023-09-19T03:32:49;98899.53;;;16.59;95.98
69855;BME280;57146;48.140;16.304;2023-09-19T03:35:18;98895.47;;;16.65;95.93
69855;BME280;57146;48.140;16.304;2023-09-19T03:37:47;98903.81;;;16.63;97.46
69855;BME280;57146;48.140;16.304;2023-09-19T03:40:14;98907.28;;;16.67;98.18
69855;BME280;57146;48.140;16.304;2023-09-19T03:42:42;98908.41;;;16.66;97.85
69855;BME280;57146;48.140;16.304;2023-09-19T03:45:12;98902.41;;;16.69;96.08
69855;BME280;57146;48.140;16.304;2023-09-19T03:47:45;98905.00;;;16.66;98.54
69855;BME280;57146;48.140;16.304;2023-09-19T03:50:12;98899.94;;;16.61;100.00
69855;BME280;57146;48.140;16.304;2023-09-19T03:52:39;98893.09;;;16.60;100.00
69855;BME280;57146;48.140;16.304;2023-09-19T03:55:06;98899.19;;;16.60;100.00
69855;BME280;57146;48.140;16.304;2023-09-19T03:57:37;98905.63;;;16.59;100.00
69855;BME280;57146;48.140;16.304;2023-09-19T04:00:05;98909.72;;;16.57;100.00
69855;BME280;57146;48.140;16.304;2023-09-19T04:02:39;98911.25;;;16.58;99.12
69855;BME280;57146;48.140;16.304;2023-09-19T04:05:07;98917.78;;;16.60;99.43
69855;BME280;57146;48.140;16.304;2023-09-19T04:07:35;98908.75;;;16.65;99.59
69855;BME280;57146;48.140;16.304;2023-09-19T04:10:02;98912.97;;;16.66;100.00
69855;BME280;57146;48.140;16.304;2023-09-19T04:12:30;98920.59;;;16.67;100.00
69855;BME280;57146;48.140;16.304;2023-09-19T04:14:57;98922.84;;;16.65;100.00
69855;BME280;57146;48.140;16.304;2023-09-19T04:17:25;98936.81;;;16.62;100.00
69855;BME280;57146;48.140;16.304;2023-09-19T04:19:52;98934.91;;;16.63;98.49
69855;BME280;57146;48.140;16.304;2023-09-19T04:22:19;98938.41;;;16.67;97.44
69855;BME280;57146;48.140;16.304;2023-09-19T04:24:46;98950.56;;;16.68;98.85
69855;BME280;57146;48.140;16.304;2023-09-19T04:27:13;98950.25;;;16.69;97.93
69855;BME280;57146;48.140;16.304;2023-09-19T04:29:42;98948.75;;;16.72;98.01
69855;BME280;57146;48.140;16.304;2023-09-19T04:32:09;98968.84;;;16.69;98.47
69855;BME280;57146;48.140;16.304;2023-09-19T04:34:36;98969.63;;;16.70;96.51
69855;BME280;57146;48.140;16.304;2023-09-19T04:37:04;98974.50;;;16.68;95.98
69855;BME280;57146;48.140;16.304;2023-09-19T04:39:31;98975.34;;;16.72;93.46
69855;BME280;57146;48.140;16.304;2023-09-19T04:41:58;98976.25;;;16.76;94.58
69855;BME280;57146;48.140;16.304;2023-09-19T04:44:25;98973.81;;;16.71;96.44
69855;BME280;57146;48.140;16.304;2023-09-19T04:46:52;98982.91;;;16.70;92.33
69855;BME280;57146;48.140;16.304;2023-09-19T04:49:20;98982.22;;;16.73;89.97
69855;BME280;57146;48.140;16.304;2023-09-19T04:51:47;98990.53;;;16.71;91.04
69855;BME280;57146;48.140;16.304;2023-09-19T04:54:14;98996.59;;;16.72;90.23
69855;BME280;57146;48.140;16.304;2023-09-19T04:56:41;99000.38;;;16.71;89.73
69855;BME280;57146;48.140;16.304;2023-09-19T04:59:08;99009.47;;;16.70;90.38
69855;BME280;57146;48.140;16.304;2023-09-19T05:01:36;99009.72;;;16.65;94.07
69855;BME280;57146;48.140;16.304;2023-09-19T05:04:03;99005.06;;;16.58;91.99
69855;BME280;57146;48.140;16.304;2023-09-19T05:06:30;99009.56;;;16.58;94.61
69855;BME280;57146;48.140;16.304;2023-09-19T05:08:57;99004.53;;;16.52;95.06
69855;BME280;57146;48.140;16.304;2023-09-19T05:11:25;99005.91;;;16.46;95.69
69855;BME280;57146;48.140;16.304;2023-09-19T05:13:52;99011.91;;;16.43;96.13
69855;BME280;57146;48.140;16.304;2023-09-19T05:16:19;99012.25;;;16.42;98.05
69855;BME280;57146;48.140;16.304;2023-09-19T05:18:47;99013.72;;;16.39;97.55
69855;BME280;57146;48.140;16.304;2023-09-19T05:21:15;99014.16;;;16.41;98.46
69855;BME280;57146;48.140;16.304;2023-09-19T05:23:42;99012.19;;;16.38;98.00
69855;BME280;57146;48.140;16.304;2023-09-19T05:26:09;99013.13;;;16.30;99.15
69855;BME280;57146;48.140;16.304;2023-09-19T05:28:36;99012.69;;;16.28;99.09
69855;BME280;57146;48.140;16.304;2023-09-19T05:31:03;99009.63;;;16.26;99.03
69855;BME280;57146;48.140;16.304;2023-09-19T05:33:30;99005.41;;;16.25;100.00
69855;BME280;57146;48.140;16.304;2023-09-19T05:35:58;99007.22;;;16.21;99.31
69855;BME280;57146;48.140;16.304;2023-09-19T05:38:25;99013.38;;;16.25;99.10
69855;BME280;57146;48.140;16.304;2023-09-19T05:40:52;99010.22;;;16.19;98.74
69855;BME280;57146;48.140;16.304;2023-09-19T05:43:19;99014.78;;;16.19;100.00
69855;BME280;57146;48.140;16.304;2023-09-19T05:45:47;99016.22;;;16.16;99.48
69855;BME280;57146;48.140;16.304;2023-09-19T05:48:15;99018.44;;;16.14;99.80
69855;BME280;57146;48.140;16.304;2023-09-19T05:50:42;99009.78;;;16.17;100.00
69855;BME280;57146;48.140;16.304;2023-09-19T05:53:09;99023.41;;;16.16;98.32
69855;BME280;57146;48.140;16.304;2023-09-19T05:55:37;99012.88;;;16.19;99.15
69855;BME280;57146;48.140;16.304;2023-09-19T05:58:04;99011.66;;;16.17;98.67
69855;BME280;57146;48.140;16.304;2023-09-19T06:00:31;99013.66;;;16.20;98.26
69855;BME280;57146;48.140;16.304;2023-09-19T06:02:59;99019.38;;;16.22;97.57
69855;BME280;57146;48.140;16.304;2023-09-19T06:05:27;99014.84;;;16.22;98.58
69855;BME280;57146;48.140;16.304;2023-09-19T06:07:54;99024.34;;;16.23;99.77
69855;BME280;57146;48.140;16.304;2023-09-19T06:10:22;99020.50;;;16.21;99.12
69855;BME280;57146;48.140;16.304;2023-09-19T06:12:49;99022.38;;;16.20;99.03
69855;BME280;57146;48.140;16.304;2023-09-19T06:15:16;99028.63;;;16.28;99.98
69855;BME280;57146;48.140;16.304;2023-09-19T06:17:48;99025.56;;;16.26;98.58
69855;BME280;57146;48.140;16.304;2023-09-19T06:20:16;99032.06;;;16.28;100.00
69855;BME280;57146;48.140;16.304;2023-09-19T06:22:45;99034.28;;;16.26;100.00
69855;BME280;57146;48.140;16.304;2023-09-19T06:25:13;99042.59;;;16.25;100.00
69855;BME280;57146;48.140;16.304;2023-09-19T06:27:41;99052.97;;;16.30;100.00
69855;BME280;57146;48.140;16.304;2023-09-19T06:30:09;99052.22;;;16.30;100.00
69855;BME280;57146;48.140;16.304;2023-09-19T06:32:36;99052.97;;;16.30;99.57
69855;BME280;57146;48.140;16.304;2023-09-19T06:35:04;99053.81;;;16.34;98.59
69855;BME280;57146;48.140;16.304;2023-09-19T06:37:31;99057.78;;;16.40;95.93
69855;BME280;57146;48.140;16.304;2023-09-19T06:39:58;99055.97;;;16.44;99.23
69855;BME280;57146;48.140;16.304;2023-09-19T06:42:25;99062.13;;;16.48;100.00
69855;BME280;57146;48.140;16.304;2023-09-19T06:45:15;99066.78;;;16.51;100.00
69855;BME280;57146;48.140;16.304;2023-09-19T06:47:43;99068.31;;;16.52;96.43
69855;BME280;57146;48.140;16.304;2023-09-19T06:50:10;99070.69;;;16.58;98.06
69855;BME280;57146;48.140;16.304;2023-09-19T06:52:37;99071.81;;;16.57;99.74
69855;BME280;57146;48.140;16.304;2023-09-19T06:55:04;99082.53;;;16.60;96.99
69855;BME280;57146;48.140;16.304;2023-09-19T06:57:31;99072.41;;;16.66;94.53
69855;BME280;57146;48.140;16.304;2023-09-19T06:59:59;99075.00;;;16.78;89.56
69855;BME280;57146;48.140;16.304;2023-09-19T07:02:26;99077.31;;;16.80;92.27
69855;BME280;57146;48.140;16.304;2023-09-19T07:04:53;99074.81;;;16.87;90.55
69855;BME280;57146;48.140;16.304;2023-09-19T07:07:20;99084.50;;;16.95;88.61
69855;BME280;57146;48.140;16.304;2023-09-19T07:09:48;99088.06;;;17.03;86.64
69855;BME280;57146;48.140;16.304;2023-09-19T07:12:18;99088.22;;;17.10;85.80
69855;BME280;57146;48.140;16.304;2023-09-19T07:14:47;99095.50;;;17.13;85.65
69855;BME280;57146;48.140;16.304;2023-09-19T07:17:15;99097.97;;;17.21;83.44
69855;BME280;57146;48.140;16.304;2023-09-19T07:19:42;99093.84;;;17.24;84.38
69855;BME280;57146;48.140;16.304;2023-09-19T07:22:10;99105.84;;;17.34;82.81
69855;BME280;57146;48.140;16.304;2023-09-19T07:24:37;99110.41;;;17.33;83.79
69855;BME280;57146;48.140;16.304;2023-09-19T07:27:04;99102.50;;;17.37;83.12
69855;BME280;57146;48.140;16.304;2023-09-19T07:29:31;99111.25;;;17.37;83.74
69855;BME280;57146;48.140;16.304;2023-09-19T07:31:58;99118.59;;;17.44;82.50
69855;BME280;57146;48.140;16.304;2023-09-19T07:34:26;99118.06;;;17.54;81.43
69855;BME280;57146;48.140;16.304;2023-09-19T07:36:53;99122.72;;;17.61;80.98
69855;BME280;57146;48.140;16.304;2023-09-19T07:39:20;99129.25;;;17.63;81.34
69855;BME280;57146;48.140;16.304;2023-09-19T07:41:49;99130.09;;;17.67;81.16
69855;BME280;57146;48.140;16.304;2023-09-19T07:44:17;99131.91;;;17.79;79.76
69855;BME280;57146;48.140;16.304;2023-09-19T07:46:44;99127.53;;;17.90;79.19
69855;BME280;57146;48.140;16.304;2023-09-19T07:49:11;99132.16;;;17.93;79.51
69855;BME280;57146;48.140;16.304;2023-09-19T07:51:38;99137.19;;;17.99;78.95
69855;BME280;57146;48.140;16.304;2023-09-19T07:54:05;99132.78;;;18.06;77.76
69855;BME280;57146;48.140;16.304;2023-09-19T07:56:32;99143.97;;;18.15;77.27
69855;BME280;57146;48.140;16.304;2023-09-19T07:58:59;99143.28;;;18.18;78.23
69855;BME280;57146;48.140;16.304;2023-09-19T08:01:26;99148.38;;;18.27;76.51
69855;BME280;57146;48.140;16.304;2023-09-19T08:03:54;99149.13;;;18.28;77.94
69855;BME280;57146;48.140;16.304;2023-09-19T08:06:21;99160.28;;;18.33;76.50
69855;BME280;57146;48.140;16.304;2023-09-19T08:08:52;99163.47;;;18.42;76.64
69855;BME280;57146;48.140;16.304;2023-09-19T08:11:19;99161.94;;;18.41;78.48
69855;BME280;57146;48.140;16.304;2023-09-19T08:13:46;99162.00;;;18.45;76.07
69855;BME280;57146;48.140;16.304;2023-09-19T08:16:15;99168.22;;;18.53;75.35
69855;BME280;57146;48.140;16.304;2023-09-19T08:18:42;99161.38;;;18.52;74.97
69855;BME280;57146;48.140;16.304;2023-09-19T08:21:11;99175.19;;;18.57;74.91
69855;BME280;57146;48.140;16.304;2023-09-19T08:23:40;99180.09;;;18.55;74.84
69855;BME280;57146;48.140;16.304;2023-09-19T08:26:09;99184.28;;;18.56;74.49
69855;BME280;57146;48.140;16.304;2023-09-19T08:28:37;99189.63;;;18.56;74.00
69855;BME280;57146;48.140;16.304;2023-09-19T08:31:05;99185.91;;;18.61;74.19
69855;BME280;57146;48.140;16.304;2023-09-19T08:33:33;99196.56;;;18.61;73.29
69855;BME280;57146;48.140;16.304;2023-09-19T08:36:01;99189.69;;;18.60;74.06
69855;BME280;57146;48.140;16.304;2023-09-19T08:38:29;99201.47;;;18.59;74.26
69855;BME280;57146;48.140;16.304;2023-09-19T08:41:00;99190.81;;;18.59;73.13
69855;BME280;57146;48.140;16.304;2023-09-19T08:43:27;99193.47;;;18.59;73.41
69855;BME280;57146;48.140;16.304;2023-09-19T08:46:11;99191.56;;;18.59;73.59
69855;BME280;57146;48.140;16.304;2023-09-19T08:48:59;99201.47;;;18.59;73.00
69855;BME280;57146;48.140;16.304;2023-09-19T08:51:47;99197.66;;;18.60;72.94
69855;BME280;57146;48.140;16.304;2023-09-19T08:54:25;99199.63;;;18.63;73.04
69855;BME280;57146;48.140;16.304;2023-09-19T08:56:54;99206.94;;;18.66;72.62
69855;BME280;57146;48.140;16.304;2023-09-19T08:59:22;99205.78;;;18.67;73.13
69855;BME280;57146;48.140;16.304;2023-09-19T09:01:49;99216.47;;;18.67;72.58
69855;BME280;57146;48.140;16.304;2023-09-19T09:04:16;99209.22;;;18.67;73.69
69855;BME280;57146;48.140;16.304;2023-09-19T09:06:44;99211.91;;;18.67;72.46
69855;BME280;57146;48.140;16.304;2023-09-19T09:09:12;99205.03;;;18.66;73.73
69855;BME280;57146;48.140;16.304;2023-09-19T09:11:39;99205.78;;;18.67;73.70
69855;BME280;57146;48.140;16.304;2023-09-19T09:14:07;99211.13;;;18.67;73.21
69855;BME280;57146;48.140;16.304;2023-09-19T09:16:34;99205.03;;;18.66;73.49
69855;BME280;57146;48.140;16.304;2023-09-19T09:19:01;99203.56;;;18.69;74.01
69855;BME280;57146;48.140;16.304;2023-09-19T09:21:32;99212.78;;;18.72;73.49
69855;BME280;57146;48.140;16.304;2023-09-19T09:23:59;99217.81;;;18.77;73.30
69855;BME280;57146;48.140;16.304;2023-09-19T09:26:41;99217.50;;;18.82;73.41
69855;BME280;57146;48.140;16.304;2023-09-19T09:29:09;99219.50;;;18.88;73.16
69855;BME280;57146;48.140;16.304;2023-09-19T09:31:36;99224.19;;;18.95;73.50
69855;BME280;57146;48.140;16.304;2023-09-19T09:34:03;99224.75;;;19.04;72.30
69855;BME280;57146;48.140;16.304;2023-09-19T09:36:40;99226.03;;;19.14;72.50
69855;BME280;57146;48.140;16.304;2023-09-19T09:39:07;99227.38;;;19.27;71.71
69855;BME280;57146;48.140;16.304;2023-09-19T09:41:37;99225.22;;;19.36;71.45
69855;BME280;57146;48.140;16.304;2023-09-19T09:44:18;99224.00;;;19.57;70.23
69855;BME280;57146;48.140;16.304;2023-09-19T09:46:47;99227.63;;;19.68;69.57
69855;BME280;57146;48.140;16.304;2023-09-19T09:49:22;99230.31;;;19.72;69.73
69855;BME280;57146;48.140;16.304;2023-09-19T09:52:04;99236.09;;;19.77;68.57
69855;BME280;57146;48.140;16.304;2023-09-19T09:54:32;99235.09;;;19.85;68.75
69855;BME280;57146;48.140;16.304;2023-09-19T09:57:01;99240.09;;;19.91;68.68
69855;BME280;57146;48.140;16.304;2023-09-19T09:59:53;99245.91;;;19.96;69.08
69855;BME280;57146;48.140;16.304;2023-09-19T10:02:35;99239.75;;;19.92;68.64
69855;BME280;57146;48.140;16.304;2023-09-19T10:07:40;99237.59;;;20.05;67.95
69855;BME280;57146;48.140;16.304;2023-09-19T10:10:11;99239.97;;;20.10;68.16
69855;BME280;57146;48.140;16.304;2023-09-19T10:12:45;99230.44;;;20.13;68.26
69855;BME280;57146;48.140;16.304;2023-09-19T10:15:20;99230.97;;;20.25;67.70
69855;BME280;57146;48.140;16.304;2023-09-19T10:17:55;99236.88;;;20.42;66.96
69855;BME280;57146;48.140;16.304;2023-09-19T10:20:23;99233.59;;;20.55;65.84
69855;BME280;57146;48.140;16.304;2023-09-19T10:22:50;99227.22;;;20.64;67.10
69855;BME280;57146;48.140;16.304;2023-09-19T10:25:20;99226.50;;;20.74;66.48
69855;BME280;57146;48.140;16.304;2023-09-19T10:27:48;99220.84;;;20.79;67.25
69855;BME280;57146;48.140;16.304;2023-09-19T10:30:20;99232.72;;;20.82;65.54
69855;BME280;57146;48.140;16.304;2023-09-19T10:32:56;99224.66;;;20.78;65.69
69855;BME280;57146;48.140;16.304;2023-09-19T10:35:49;99220.53;;;20.88;66.20
69855;BME280;57146;48.140;16.304;2023-09-19T10:38:23;99219.56;;;21.07;66.62
69855;BME280;57146;48.140;16.304;2023-09-19T10:40:53;99223.94;;;21.33;65.42
69855;BME280;57146;48.140;16.304;2023-09-19T10:43:48;99228.47;;;21.25;63.52
69855;BME280;57146;48.140;16.304;2023-09-19T10:46:16;99228.94;;;21.34;62.64
69855;BME280;57146;48.140;16.304;2023-09-19T10:48:43;99227.44;;;21.37;62.58
69855;BME280;57146;48.140;16.304;2023-09-19T10:51:15;99225.53;;;21.41;63.49
69855;BME280;57146;48.140;16.304;2023-09-19T10:53:50;99228.63;;;21.43;62.82
69855;BME280;57146;48.140;16.304;2023-09-19T10:56:42;99225.59;;;21.51;63.51
69855;BME280;57146;48.140;16.304;2023-09-19T10:59:11;99218.78;;;21.61;63.00
69855;BME280;57146;48.140;16.304;2023-09-19T11:01:42;99222.97;;;21.62;62.54
69855;BME280;57146;48.140;16.304;2023-09-19T11:04:36;99227.25;;;21.70;61.09
69855;BME280;57146;48.140;16.304;2023-09-19T11:07:10;99220.72;;;21.64;60.98
69855;BME280;57146;48.140;16.304;2023-09-19T11:09:53;99224.53;;;21.63;60.94
69855;BME280;57146;48.140;16.304;2023-09-19T11:14:59;99228.41;;;21.76;61.05
69855;BME280;57146;48.140;16.304;2023-09-19T11:17:33;99223.84;;;21.84;61.19
69855;BME280;57146;48.140;16.304;2023-09-19T11:30:31;99218.69;;;22.27;58.70
69855;BME280;57146;48.140;16.304;2023-09-19T11:33:28;99212.94;;;22.29;57.64
69855;BME280;57146;48.140;16.304;2023-09-19T11:36:03;99217.13;;;22.22;58.80
69855;BME280;57146;48.140;16.304;2023-09-19T11:43:50;99220.19;;;22.17;58.64
69855;BME280;57146;48.140;16.304;2023-09-19T11:46:22;99212.88;;;22.11;58.16
69855;BME280;57146;48.140;16.304;2023-09-19T11:48:50;99207.09;;;22.02;57.95
69855;BME280;57146;48.140;16.304;2023-09-19T11:51:19;99205.59;;;22.11;57.89
69855;BME280;57146;48.140;16.304;2023-09-19T11:53:47;99208.72;;;22.20;57.96
69855;BME280;57146;48.140;16.304;2023-09-19T11:56:19;99208.66;;;22.10;58.11
69855;BME280;57146;48.140;16.304;2023-09-19T11:58:49;99198.78;;;22.25;58.05
69855;BME280;57146;48.140;16.304;2023-09-19T12:01:31;99192.63;;;22.20;58.00
69855;BME280;57146;48.140;16.304;2023-09-19T12:04:03;99200.97;;;22.05;57.23
69855;BME280;57146;48.140;16.304;2023-09-19T12:06:30;99197.94;;;22.10;58.47
69855;BME280;57146;48.140;16.304;2023-09-19T12:08:57;99204.50;;;22.23;57.67
69855;BME280;57146;48.140;16.304;2023-09-19T12:11:29;99205.63;;;22.18;58.03
69855;BME280;57146;48.140;16.304;2023-09-19T12:13:56;99193.41;;;22.25;58.20
69855;BME280;57146;48.140;16.304;2023-09-19T12:16:24;99194.19;;;22.29;57.18
69855;BME280;57146;48.140;16.304;2023-09-19T12:18:51;99199.56;;;22.39;57.27
69855;BME280;57146;48.140;16.304;2023-09-19T12:21:31;99197.66;;;22.47;56.04
69855;BME280;57146;48.140;16.304;2023-09-19T12:24:11;99194.63;;;22.52;56.87
69855;BME280;57146;48.140;16.304;2023-09-19T12:26:43;99205.72;;;22.61;56.22
69855;BME280;57146;48.140;16.304;2023-09-19T12:29:12;99204.97;;;22.64;55.12
69855;BME280;57146;48.140;16.304;2023-09-19T12:31:53;99203.81;;;22.65;52.81
69855;BME280;57146;48.140;16.304;2023-09-19T12:34:24;99210.34;;;22.71;53.96
69855;BME280;57146;48.140;16.304;2023-09-19T12:37:06;99206.13;;;22.60;54.29
69855;BME280;57146;48.140;16.304;2023-09-19T12:39:33;99210.72;;;22.56;53.97
69855;BME280;57146;48.140;16.304;2023-09-19T12:42:01;99214.16;;;22.49;53.86
69855;BME280;57146;48.140;16.304;2023-09-19T12:44:28;99210.69;;;22.38;54.26
69855;BME280;57146;48.140;16.304;2023-09-19T12:46:55;99219.53;;;22.53;54.68
69855;BME280;57146;48.140;16.304;2023-09-19T12:49:23;99220.66;;;22.55;54.34
69855;BME280;57146;48.140;16.304;2023-09-19T12:51:55;99211.09;;;22.61;54.04
69855;BME280;57146;48.140;16.304;2023-09-19T12:54:22;99214.16;;;22.49;53.90
69855;BME280;57146;48.140;16.304;2023-09-19T12:56:49;99222.59;;;22.62;53.06
69855;BME280;57146;48.140;16.304;2023-09-19T12:59:16;99213.03;;;22.68;53.00
69855;BME280;57146;48.140;16.304;2023-09-19T13:01:43;99223.34;;;22.73;52.45
69855;BME280;57146;48.140;16.304;2023-09-19T13:04:14;99218.38;;;22.75;52.58
69855;BME280;57146;48.140;16.304;2023-09-19T13:06:41;99217.63;;;22.71;52.48
69855;BME280;57146;48.140;16.304;2023-09-19T13:09:10;99214.56;;;22.80;53.05
69855;BME280;57146;48.140;16.304;2023-09-19T13:11:38;99216.47;;;22.79;52.08
69855;BME280;57146;48.140;16.304;2023-09-19T13:14:25;99212.25;;;22.89;52.25
69855;BME280;57146;48.140;16.304;2023-09-19T13:17:00;99204.25;;;22.96;53.55
69855;BME280;57146;48.140;16.304;2023-09-19T13:22:01;99201.16;;;23.01;50.53
69855;BME280;57146;48.140;16.304;2023-09-19T13:24:28;99212.28;;;23.00;50.32
69855;BME280;57146;48.140;16.304;2023-09-19T13:26:56;99205.75;;;23.01;49.86
69855;BME280;57146;48.140;16.304;2023-09-19T13:29:23;99204.63;;;23.05;50.84
69855;BME280;57146;48.140;16.304;2023-09-19T13:31:51;99214.22;;;23.03;49.80
69855;BME280;57146;48.140;16.304;2023-09-19T13:34:19;99211.13;;;23.04;50.48
69855;BME280;57146;48.140;16.304;2023-09-19T13:36:47;99207.69;;;22.97;50.79
69855;BME280;57146;48.140;16.304;2023-09-19T13:39:15;99216.91;;;22.92;51.05
69855;BME280;57146;48.140;16.304;2023-09-19T13:41:44;99212.25;;;22.89;50.81
69855;BME280;57146;48.140;16.304;2023-09-19T13:44:12;99216.09;;;22.91;50.66
69855;BME280;57146;48.140;16.304;2023-09-19T13:46:39;99214.22;;;22.96;51.68